createdAt,value
2019-01-19T00:05:02.217Z,99.9
2019-01-19T00:10:04.648Z,99.9
2019-01-19T00:15:07.101Z,99.9
2019-01-19T00:20:09.517Z,99.9
2019-01-19T00:25:11.983Z,99.9
2019-01-19T00:30:14.461Z,99.9
2019-01-19T00:35:17.910Z,99.9
2019-01-19T00:40:19.348Z,99.9
2019-01-19T00:45:21.798Z,99.9
2019-01-19T00:50:24.258Z,99.9
2019-01-19T00:55:26.787Z,99.9
2019-01-19T01:00:29.188Z,99.9
2019-01-19T01:05:31.631Z,99.9
2019-01-19T01:10:34.099Z,99.9
2019-01-19T01:15:36.609Z,99.9
2019-01-19T01:20:38.989Z,99.9
2019-01-19T01:25:41.440Z,99.9
2019-01-19T01:30:43.945Z,99.9
2019-01-19T01:35:46.403Z,99.9
2019-01-19T01:40:48.836Z,99.9
2019-01-19T01:45:51.282Z,99.9
2019-01-19T01:50:53.754Z,96.8
2019-01-19T01:55:56.229Z,93.1
2019-01-19T02:00:58.655Z,95.3
2019-01-19T02:06:01.197Z,93.7
2019-01-19T02:11:03.559Z,96
2019-01-19T02:16:06.047Z,96.3
2019-01-19T02:21:08.475Z,94.8
2019-01-19T02:26:10.937Z,99.8
2019-01-19T02:31:13.386Z,98.6
2019-01-19T02:36:15.856Z,96.7
2019-01-19T02:41:18.311Z,96
2019-01-19T02:46:20.758Z,96.9
2019-01-19T02:51:23.219Z,94.1
2019-01-19T02:56:25.667Z,93
2019-01-19T03:01:28.132Z,93.7
2019-01-19T03:06:30.598Z,90.4
2019-01-19T03:11:33.045Z,91.9
2019-01-19T03:16:35.514Z,91.9
2019-01-19T03:21:37.988Z,97.6
2019-01-19T03:26:40.549Z,99.9
2019-01-19T03:31:42.888Z,99.9
2019-01-19T03:36:45.371Z,99.9
2019-01-19T03:41:47.787Z,99.9
2019-01-19T03:46:50.245Z,99.9
2019-01-19T03:51:52.713Z,99.9
2019-01-19T03:56:55.174Z,99.9
2019-01-19T04:01:57.611Z,99.9
2019-01-19T04:07:00.069Z,99.9
2019-01-19T04:12:02.597Z,99.9
2019-01-19T04:17:04.990Z,99.9
2019-01-19T04:22:07.485Z,99.9
2019-01-19T04:27:09.942Z,99.9
2019-01-19T04:32:12.381Z,99.9
2019-01-19T04:37:14.938Z,99.9
2019-01-19T04:42:17.300Z,95.4
2019-01-19T04:47:19.770Z,92
2019-01-19T04:52:22.188Z,93.8
2019-01-19T04:57:24.665Z,93.8
2019-01-19T05:02:27.114Z,93
2019-01-19T05:07:29.588Z,89.8
2019-01-19T05:12:37.021Z,83.6
2019-01-19T05:17:34.477Z,85.8
2019-01-19T05:22:36.981Z,82.7
2019-01-19T05:27:44.405Z,75.4
2019-01-19T05:32:41.862Z,69
2019-01-19T05:37:44.360Z,68.9
2019-01-19T05:42:47.124Z,77
2019-01-19T05:47:49.225Z,72.5
2019-01-19T05:52:51.721Z,65.5
2019-01-19T05:57:54.151Z,52
2019-01-19T06:02:56.615Z,43.2
2019-01-19T06:07:59.050Z,37.4
2019-01-19T06:13:01.524Z,58
2019-01-19T06:18:03.965Z,68.4
2019-01-19T06:23:06.401Z,62.8
2019-01-19T06:28:08.966Z,60.7
2019-01-19T06:33:11.325Z,57.2
2019-01-19T06:38:14.111Z,50.1
2019-01-19T06:43:16.309Z,47.4
2019-01-19T06:48:18.756Z,53.4
2019-01-19T06:53:21.200Z,64
2019-01-19T06:58:23.597Z,49.3
2019-01-19T07:03:26.066Z,48
2019-01-19T07:08:28.519Z,54.8
2019-01-19T07:13:30.978Z,60.9
2019-01-19T07:18:33.478Z,73.5
2019-01-19T07:23:35.928Z,82.3
2019-01-19T07:28:38.389Z,90.4
2019-01-19T07:33:40.880Z,93.4
2019-01-19T07:38:43.255Z,98
2019-01-19T07:43:45.729Z,99.9
2019-01-19T07:48:48.177Z,99.9
2019-01-19T07:53:50.638Z,99.9
2019-01-19T07:58:53.092Z,99.9
2019-01-19T08:03:55.551Z,99.9
2019-01-19T08:08:57.998Z,99.9
2019-01-19T08:14:00.470Z,99.9
2019-01-19T08:19:02.920Z,99.9
2019-01-19T08:24:05.381Z,99.9
2019-01-19T08:29:07.831Z,99.9
2019-01-19T08:34:10.315Z,1
2019-01-19T08:39:12.784Z,1
2019-01-19T08:44:15.225Z,1
2019-01-19T08:49:17.683Z,1
2019-01-19T08:54:20.149Z,1
2019-01-19T08:59:22.597Z,1
2019-01-19T09:04:25.224Z,1
2019-01-19T09:09:27.503Z,1
2019-01-19T09:14:29.967Z,1
2019-01-19T09:19:32.499Z,1
2019-01-19T09:24:34.876Z,1
2019-01-19T09:29:37.373Z,1
2019-01-19T09:34:39.794Z,1
2019-01-19T09:39:42.255Z,1
2019-01-19T09:44:44.967Z,1
2019-01-19T09:49:47.190Z,1
2019-01-19T09:54:49.626Z,1
2019-01-19T09:59:52.083Z,1
2019-01-19T10:04:54.553Z,1
2019-01-19T10:09:56.993Z,1
2019-01-19T10:14:59.461Z,1
2019-01-19T10:20:01.967Z,1
2019-01-19T10:25:04.410Z,1
2019-01-19T10:30:06.866Z,1
2019-01-19T10:35:09.341Z,1
2019-01-19T10:40:11.784Z,1
2019-01-19T10:45:14.209Z,1
2019-01-19T10:50:16.705Z,1
2019-01-19T10:55:19.126Z,1
2019-01-19T11:00:21.650Z,1
2019-01-19T11:05:24.090Z,1
2019-01-19T11:10:26.558Z,1
2019-01-19T11:15:29.018Z,1
2019-01-19T11:20:31.441Z,1
2019-01-19T11:25:33.894Z,1
2019-01-19T11:30:36.324Z,1
2019-01-19T11:35:38.793Z,1
2019-01-19T11:40:41.248Z,1
2019-01-19T11:45:43.698Z,1
2019-01-19T11:50:46.244Z,1
2019-01-19T11:55:48.700Z,1
2019-01-19T12:00:51.076Z,1
2019-01-19T12:05:53.599Z,1
2019-01-19T12:10:56.092Z,1
2019-01-19T12:15:58.447Z,1
2019-01-19T12:21:00.912Z,1
2019-01-19T12:26:03.377Z,1
2019-01-19T12:31:05.835Z,1
2019-01-19T12:36:08.278Z,1
2019-01-19T12:41:10.741Z,1
2019-01-19T12:46:13.209Z,1
2019-01-19T12:51:15.650Z,1
2019-01-19T12:56:18.098Z,1
2019-01-19T13:01:20.568Z,1
2019-01-19T13:06:23.042Z,1
2019-01-19T13:11:25.490Z,1
2019-01-19T13:16:27.943Z,1
2019-01-19T13:21:30.423Z,1
2019-01-19T13:26:32.894Z,1
2019-01-19T13:31:35.408Z,1
2019-01-19T13:36:37.774Z,1
2019-01-19T13:41:40.229Z,1
2019-01-19T13:46:42.678Z,1
2019-01-19T13:51:45.150Z,1
2019-01-19T13:56:47.637Z,1
2019-01-19T14:01:50.053Z,1
2019-01-19T14:06:52.506Z,1
2019-01-19T14:11:55.043Z,1
2019-01-19T14:16:57.415Z,1
2019-01-19T14:21:59.877Z,1
2019-01-19T14:27:02.382Z,1
2019-01-19T14:32:04.792Z,1
2019-01-19T14:37:07.280Z,1
2019-01-19T14:42:09.772Z,1
2019-01-19T14:47:12.222Z,1
2019-01-19T14:52:14.628Z,1
2019-01-19T14:57:17.086Z,1
2019-01-19T15:02:19.554Z,1
2019-01-19T15:07:22.016Z,1
2019-01-19T15:12:24.475Z,1
2019-01-19T15:17:26.927Z,1
2019-01-19T15:22:29.423Z,1
2019-01-19T15:27:31.866Z,1
2019-01-19T15:32:34.368Z,1
2019-01-19T15:37:36.787Z,1
2019-01-19T15:42:39.252Z,1
2019-01-19T15:47:41.726Z,1
2019-01-19T15:52:44.206Z,1
2019-01-19T15:57:46.637Z,1
2019-01-19T16:02:49.098Z,1
2019-01-19T16:07:51.547Z,1
2019-01-19T16:12:54.104Z,1
2019-01-19T16:17:56.482Z,1
2019-01-19T16:22:58.913Z,1
2019-01-19T16:28:01.440Z,1
2019-01-19T16:33:03.829Z,1
2019-01-19T16:38:06.321Z,1
2019-01-19T16:43:09.036Z,1
2019-01-19T16:48:11.246Z,1
2019-01-19T16:53:13.689Z,1
2019-01-19T16:58:16.180Z,1
2019-01-19T17:03:18.621Z,1
2019-01-19T17:08:21.018Z,1
2019-01-19T17:13:23.479Z,1
2019-01-19T17:18:26.488Z,1
2019-01-19T17:23:29.293Z,1
2019-01-19T17:28:30.870Z,1
2019-01-19T17:33:33.316Z,1
2019-01-19T17:38:35.771Z,1
2019-01-19T17:43:38.227Z,1
2019-01-19T17:48:40.674Z,1
2019-01-19T17:58:45.597Z,1
2019-01-19T18:03:48.051Z,1
2019-01-19T18:23:57.887Z,1
2019-01-19T18:29:00.354Z,1
2019-01-19T18:34:02.807Z,1
2019-01-19T18:39:05.283Z,1
2019-01-19T18:44:07.711Z,1
2019-01-19T18:49:10.176Z,1
2019-01-19T18:54:12.650Z,1
2019-01-19T19:44:37.263Z,40.7
2019-01-19T19:49:39.658Z,24.3
2019-01-19T19:54:42.088Z,11
2019-01-19T19:59:44.638Z,20.9
2019-01-19T20:04:47.028Z,8.6
2019-01-19T20:09:49.483Z,41.6
2019-01-19T20:14:51.930Z,56.2
2019-01-19T20:19:54.382Z,89.3
2019-01-19T20:24:56.851Z,83.2
2019-01-19T20:29:59.314Z,88
2019-01-19T20:35:07.084Z,99.9
2019-01-19T20:40:04.239Z,99.9
2019-01-19T20:45:06.667Z,99.9
2019-01-19T20:50:09.166Z,99.9
2019-01-19T20:55:11.579Z,99.9
2019-01-19T21:00:14.542Z,99.9
2019-01-19T21:05:16.518Z,99.9
2019-01-19T21:10:18.950Z,99.9
2019-01-19T21:15:21.411Z,99.9
2019-01-19T21:20:23.876Z,99.9
2019-01-19T21:25:26.332Z,99.9
2019-01-19T21:30:28.847Z,99.9
2019-01-19T21:35:31.407Z,99.9
2019-01-19T21:40:38.845Z,99.9
2019-01-19T21:45:36.292Z,99.9
2019-01-19T21:50:38.623Z,99.9
2019-01-19T21:55:41.058Z,99.9
2019-01-19T22:00:43.550Z,99.9
2019-01-19T22:05:49.702Z,99.9
2019-01-19T22:10:48.474Z,99.9
2019-01-19T22:15:50.888Z,99.9
2019-01-19T22:20:53.340Z,99.9
2019-01-19T22:25:55.790Z,99.9
2019-01-19T22:30:58.275Z,99.9
2019-01-19T22:36:00.912Z,99.9
2019-01-19T22:41:03.238Z,99.9
2019-01-19T22:46:05.633Z,99.9
2019-01-19T22:51:11.261Z,99.9
2019-01-19T22:56:10.531Z,99.9
2019-01-19T23:01:13.032Z,99.9
2019-01-19T23:06:15.474Z,99.9
2019-01-19T23:11:17.906Z,99.9
2019-01-19T23:16:20.369Z,99.9
2019-01-19T23:21:22.832Z,99.9
2019-01-19T23:26:25.274Z,99.9
2019-01-19T23:31:27.747Z,99.9
2019-01-19T23:36:30.212Z,99.9
2019-01-19T23:41:32.690Z,99.9
2019-01-19T23:46:35.100Z,99.9
2019-01-19T23:51:37.563Z,99.9
2019-01-19T23:56:40.045Z,99.9
